createdAt,value
2022-10-18T00:01:02.013Z,21.83
2022-10-18T00:03:30.386Z,23.13
2022-10-18T00:05:58.625Z,22.53
2022-10-18T00:08:28.130Z,24.40
2022-10-18T00:10:56.565Z,23.07
2022-10-18T00:13:24.770Z,24.27
2022-10-18T00:15:53.522Z,23.67
2022-10-18T00:18:21.883Z,23.63
2022-10-18T00:20:57.871Z,22.37
2022-10-18T00:23:26.133Z,24.17
2022-10-18T00:26:01.761Z,20.43
2022-10-18T00:28:30.176Z,20.63
2022-10-18T00:30:58.551Z,21.80
2022-10-18T00:33:26.769Z,23.53
2022-10-18T00:35:54.913Z,23.63
2022-10-18T00:38:23.123Z,23.20
2022-10-18T00:40:51.313Z,22.00
2022-10-18T00:43:20.806Z,22.10
2022-10-18T00:45:49.009Z,22.80
2022-10-18T00:48:17.541Z,23.67
2022-10-18T00:50:45.819Z,22.90
2022-10-18T00:53:15.960Z,23.00
2022-10-18T00:55:44.206Z,22.57
2022-10-18T00:58:13.225Z,22.60
2022-10-18T01:00:42.815Z,21.93
2022-10-18T01:03:11.312Z,23.13
2022-10-18T01:05:40.220Z,22.80
2022-10-18T01:08:29.806Z,21.20
2022-10-18T01:11:05.498Z,20.90
2022-10-18T01:13:39.574Z,21.40
2022-10-18T01:16:11.287Z,22.40
2022-10-18T01:18:41.896Z,21.23
2022-10-18T01:21:14.565Z,25.10
2022-10-18T01:23:51.701Z,25.10
2022-10-18T01:26:25.126Z,21.87
2022-10-18T01:28:58.682Z,21.20
2022-10-18T01:31:29.872Z,22.20
2022-10-18T01:33:59.496Z,20.43
2022-10-18T01:36:29.274Z,20.43
2022-10-18T01:38:59.268Z,20.77
2022-10-18T01:41:28.892Z,22.30
2022-10-18T01:43:59.074Z,20.20
2022-10-18T01:46:29.975Z,21.17
2022-10-18T01:48:58.617Z,19.53
2022-10-18T01:51:27.595Z,21.00
2022-10-18T01:53:55.808Z,22.43
2022-10-18T01:56:27.076Z,21.13
2022-10-18T01:59:04.596Z,21.40
2022-10-18T02:01:38.630Z,21.70
2022-10-18T02:04:08.953Z,21.80
2022-10-18T02:06:38.317Z,21.17
2022-10-18T02:09:10.458Z,21.57
2022-10-18T02:11:39.966Z,24.17
2022-10-18T02:14:09.635Z,19.37
2022-10-18T02:16:40.610Z,21.27
2022-10-18T02:19:12.249Z,22.07
2022-10-18T02:21:41.329Z,19.63
2022-10-18T02:24:09.857Z,22.17
2022-10-18T02:26:38.040Z,22.53
2022-10-18T02:29:06.305Z,22.17
2022-10-18T02:31:37.800Z,21.97
2022-10-18T02:34:10.656Z,21.47
2022-10-18T02:36:40.803Z,22.70
2022-10-18T02:39:14.279Z,21.23
2022-10-18T02:41:42.521Z,21.70
2022-10-18T02:44:10.795Z,21.97
2022-10-18T02:46:39.050Z,22.83
2022-10-18T02:49:08.815Z,21.40
2022-10-18T02:51:36.995Z,20.37
2022-10-18T02:54:05.275Z,20.50
2022-10-18T02:56:33.473Z,20.13
2022-10-18T02:59:01.660Z,21.40
2022-10-18T03:01:29.881Z,21.10
2022-10-18T03:03:58.072Z,20.80
2022-10-18T03:06:27.642Z,20.43
2022-10-18T03:08:55.857Z,20.80
2022-10-18T03:11:24.169Z,21.93
2022-10-18T03:13:52.328Z,23.33
2022-10-18T03:16:20.516Z,22.60
2022-10-18T03:18:48.677Z,22.93
2022-10-18T03:21:16.873Z,23.23
2022-10-18T03:23:46.414Z,24.73
2022-10-18T03:26:14.563Z,24.80
2022-10-18T03:28:42.822Z,24.47
2022-10-18T03:31:11.100Z,25.37
2022-10-18T03:33:39.264Z,27.33
2022-10-18T03:36:07.676Z,27.17
2022-10-18T03:38:35.850Z,28.93
2022-10-18T03:41:05.911Z,26.27
2022-10-18T03:43:34.089Z,25.87
2022-10-18T03:46:02.577Z,24.57
2022-10-18T03:48:30.769Z,26.17
2022-10-18T03:50:58.912Z,27.13
2022-10-18T03:53:27.157Z,29.20
2022-10-18T03:55:55.387Z,31.20
2022-10-18T03:58:24.996Z,32.97
2022-10-18T04:00:53.361Z,28.30
2022-10-18T04:03:22.346Z,26.47
2022-10-18T04:05:51.201Z,26.37
2022-10-18T04:08:19.897Z,25.50
2022-10-18T04:10:48.092Z,29.60
2022-10-18T04:13:16.244Z,35.67
2022-10-18T04:15:46.045Z,30.73
2022-10-18T04:18:14.216Z,28.83
2022-10-18T04:20:42.401Z,30.77
2022-10-18T04:23:10.612Z,29.63
2022-10-18T04:25:38.805Z,35.77
2022-10-18T04:28:07.116Z,34.47
2022-10-18T04:30:35.345Z,34.57
2022-10-18T04:33:04.883Z,33.67
2022-10-18T04:35:33.038Z,32.00
2022-10-18T04:38:01.223Z,35.23
2022-10-18T04:40:29.395Z,38.70
2022-10-18T04:42:57.564Z,44.77
2022-10-18T04:45:25.741Z,43.13
2022-10-18T04:47:53.923Z,47.30
2022-10-18T04:50:23.426Z,52.50
2022-10-18T04:52:53.369Z,49.23
2022-10-18T04:55:21.913Z,44.67
2022-10-18T04:57:54.123Z,47.70
2022-10-18T05:00:22.308Z,45.07
2022-10-18T05:02:50.494Z,38.67
2022-10-18T05:05:18.723Z,39.13
2022-10-18T05:07:48.294Z,37.73
2022-10-18T05:10:16.551Z,39.47
2022-10-18T05:12:44.764Z,35.60
2022-10-18T05:15:12.977Z,33.33
2022-10-18T05:17:41.173Z,38.40
2022-10-18T05:20:09.694Z,34.90
2022-10-18T05:22:37.911Z,33.70
2022-10-18T05:25:08.092Z,35.33
2022-10-18T05:27:36.538Z,33.50
2022-10-18T05:30:05.945Z,32.03
2022-10-18T05:32:34.758Z,32.97
2022-10-18T05:35:03.218Z,31.97
2022-10-18T05:37:31.502Z,32.27
2022-10-18T05:39:59.767Z,37.37
2022-10-18T05:42:29.498Z,38.90
2022-10-18T05:44:58.129Z,35.17
2022-10-18T05:47:26.461Z,36.93
2022-10-18T05:49:54.643Z,37.60
2022-10-18T05:52:22.978Z,35.10
2022-10-18T05:54:51.176Z,34.60
2022-10-18T05:57:19.494Z,36.20
2022-10-18T05:59:49.163Z,38.20
2022-10-18T06:02:19.904Z,35.10
2022-10-18T06:04:48.169Z,37.53
2022-10-18T06:07:16.399Z,36.37
2022-10-18T06:09:44.804Z,42.67
2022-10-18T06:12:13.234Z,38.47
2022-10-18T06:14:41.420Z,41.00
2022-10-18T06:17:10.949Z,38.87
2022-10-18T06:19:39.142Z,40.97
2022-10-18T06:22:07.334Z,40.43
2022-10-18T06:24:35.501Z,40.63
2022-10-18T06:27:08.112Z,41.00
2022-10-18T06:29:36.634Z,40.07
2022-10-18T06:32:05.151Z,37.00
2022-10-18T06:34:34.969Z,39.57
2022-10-18T06:37:03.158Z,41.03
2022-10-18T06:39:31.388Z,42.07
2022-10-18T06:41:59.681Z,39.53
2022-10-18T06:44:27.845Z,44.47
2022-10-18T06:46:56.092Z,49.50
2022-10-18T06:49:24.291Z,44.73
2022-10-18T06:51:55.563Z,42.90
2022-10-18T06:54:23.887Z,42.50
2022-10-18T06:56:52.065Z,46.43
2022-10-18T06:59:20.350Z,44.70
2022-10-18T07:01:48.685Z,42.50
2022-10-18T07:04:16.947Z,46.53
2022-10-18T07:06:45.169Z,48.70
2022-10-18T07:09:14.870Z,48.33
2022-10-18T07:11:43.044Z,42.60
2022-10-18T07:14:15.384Z,47.17
2022-10-18T07:16:44.617Z,49.63
2022-10-18T07:19:12.807Z,43.63
2022-10-18T07:21:41.058Z,44.13
2022-10-18T07:24:09.253Z,49.87
2022-10-18T07:26:38.894Z,41.27
2022-10-18T07:29:08.452Z,43.37
2022-10-18T07:31:38.362Z,45.07
2022-10-18T07:34:07.481Z,44.27
2022-10-18T07:36:36.020Z,44.80
2022-10-18T07:39:04.616Z,46.40
2022-10-18T07:41:33.764Z,48.87
2022-10-18T07:44:03.703Z,45.03
2022-10-18T07:46:31.950Z,47.33
2022-10-18T07:49:00.292Z,45.00
2022-10-18T07:51:30.884Z,40.57
2022-10-18T07:53:59.061Z,45.40
2022-10-18T07:56:27.267Z,44.13
2022-10-18T07:58:56.183Z,44.60
2022-10-18T08:01:26.260Z,43.67
2022-10-18T08:03:55.066Z,37.70
2022-10-18T08:06:24.464Z,42.60
2022-10-18T08:08:52.630Z,42.17
2022-10-18T08:11:22.331Z,43.17
2022-10-18T08:13:50.543Z,39.40
2022-10-18T08:16:20.374Z,41.40
2022-10-18T08:18:53.207Z,36.83
2022-10-18T08:21:22.005Z,43.93
2022-10-18T08:23:51.555Z,38.93
2022-10-18T08:26:20.890Z,34.87
2022-10-18T08:29:03.541Z,36.47
2022-10-18T08:31:37.669Z,34.40
2022-10-18T08:34:07.328Z,36.30
2022-10-18T08:36:35.710Z,34.23
2022-10-18T08:39:03.929Z,28.73
2022-10-18T08:41:39.431Z,32.07
2022-10-18T08:44:09.363Z,29.30
2022-10-18T08:46:39.052Z,33.80
2022-10-18T08:49:12.231Z,32.00
2022-10-18T08:51:41.655Z,30.00
2022-10-18T08:54:12.804Z,24.73
2022-10-18T08:56:44.996Z,25.73
2022-10-18T08:59:24.747Z,29.00
2022-10-18T09:01:59.386Z,28.27
2022-10-18T09:04:37.717Z,23.67
2022-10-18T09:07:15.197Z,28.73
2022-10-18T09:09:46.788Z,27.53
2022-10-18T09:12:22.165Z,26.80
2022-10-18T09:15:05.567Z,21.98
2022-10-18T09:17:37.339Z,24.33
2022-10-18T09:20:12.914Z,23.08
2022-10-18T09:22:45.260Z,23.67
2022-10-18T09:25:20.758Z,25.45
2022-10-18T09:27:53.650Z,22.73
2022-10-18T09:30:28.834Z,26.48
2022-10-18T09:33:01.821Z,24.58
2022-10-18T09:35:33.649Z,22.83
2022-10-18T09:38:04.166Z,23.20
2022-10-18T09:40:34.318Z,21.57
2022-10-18T09:43:04.841Z,21.33
2022-10-18T09:45:37.823Z,22.50
2022-10-18T09:48:09.516Z,23.58
2022-10-18T09:50:41.227Z,22.27
2022-10-18T09:53:14.851Z,19.90
2022-10-18T09:55:50.003Z,27.00
2022-10-18T09:58:19.372Z,20.17
2022-10-18T10:00:49.539Z,21.27
2022-10-18T10:03:17.704Z,19.67
2022-10-18T10:05:47.312Z,21.50
2022-10-18T10:08:15.580Z,19.13
2022-10-18T10:10:47.923Z,22.17
2022-10-18T10:13:22.113Z,16.38
2022-10-18T10:15:55.053Z,18.63
2022-10-18T10:18:24.315Z,17.08
2022-10-18T10:20:55.402Z,25.92
2022-10-18T10:23:24.794Z,20.90
2022-10-18T10:25:53.906Z,21.60
2022-10-18T10:28:23.371Z,16.30
2022-10-18T10:30:51.662Z,12.85
2022-10-18T10:33:33.892Z,13.48
2022-10-18T10:36:04.597Z,15.57
2022-10-18T10:38:33.192Z,12.25
2022-10-18T10:41:01.481Z,12.95
2022-10-18T10:43:38.090Z,13.45
2022-10-18T10:46:09.091Z,13.40
2022-10-18T10:48:42.696Z,15.90
2022-10-18T10:51:12.667Z,13.57
2022-10-18T10:53:45.419Z,12.73
2022-10-18T10:56:24.872Z,13.85
2022-10-18T10:58:53.759Z,14.05
2022-10-18T11:01:24.086Z,12.30
2022-10-18T11:03:53.021Z,13.07
2022-10-18T11:06:41.260Z,11.02
2022-10-18T11:09:13.955Z,10.23
2022-10-18T11:11:46.939Z,8.20
2022-10-18T11:14:25.626Z,9.95
2022-10-18T11:16:58.368Z,8.60
2022-10-18T11:19:34.510Z,5.55
2022-10-18T11:22:06.650Z,9.60
2022-10-18T11:24:35.776Z,10.02
2022-10-18T11:27:07.994Z,12.48
2022-10-18T11:29:43.493Z,11.70
2022-10-18T11:32:15.612Z,7.05
2022-10-18T11:34:53.961Z,10.18
2022-10-18T11:37:34.847Z,12.43
2022-10-18T11:40:13.186Z,4.57
2022-10-18T11:42:49.094Z,9.15
2022-10-18T11:45:26.315Z,6.85
2022-10-18T11:47:58.306Z,6.75
2022-10-18T11:50:32.391Z,5.43
2022-10-18T11:53:05.389Z,7.18
2022-10-18T11:55:51.301Z,7.40
2022-10-18T11:58:31.726Z,8.95
2022-10-18T12:01:03.110Z,8.23
2022-10-18T12:03:37.480Z,10.77
2022-10-18T12:06:07.674Z,8.50
2022-10-18T12:08:40.481Z,8.32
2022-10-18T12:11:11.728Z,10.02
2022-10-18T12:13:42.390Z,8.38
2022-10-18T12:16:11.293Z,7.97
2022-10-18T12:18:46.448Z,8.95
2022-10-18T12:21:14.888Z,7.82
2022-10-18T12:23:47.364Z,7.88
2022-10-18T12:26:15.921Z,6.13
2022-10-18T12:28:49.094Z,5.63
2022-10-18T12:31:22.579Z,7.32
2022-10-18T12:33:52.177Z,6.72
2022-10-18T12:36:29.860Z,7.88
2022-10-18T12:39:00.476Z,10.02
2022-10-18T12:41:30.533Z,7.53
2022-10-18T12:44:00.148Z,6.32
2022-10-18T12:46:44.491Z,3.47
2022-10-18T12:49:13.518Z,4.90
2022-10-18T12:51:51.954Z,5.30
2022-10-18T12:54:22.987Z,3.10
2022-10-18T12:56:51.459Z,6.20
2022-10-18T12:59:53.743Z,6.97
2022-10-18T13:02:29.606Z,5.53
2022-10-18T13:07:44.773Z,4.50
2022-10-18T13:10:39.838Z,4.65
2022-10-18T13:13:38.280Z,8.43
2022-10-18T13:16:06.182Z,5.28
2022-10-18T13:18:44.166Z,4.55
2022-10-18T13:21:16.616Z,4.75
2022-10-18T13:23:52.255Z,5.30
2022-10-18T13:29:11.520Z,12.20
2022-10-18T13:31:41.667Z,5.22
2022-10-18T13:34:24.719Z,7.28
2022-10-18T13:36:58.081Z,6.53
2022-10-18T13:39:26.601Z,5.78
2022-10-18T13:42:13.708Z,4.03
2022-10-18T13:44:44.768Z,4.50
2022-10-18T13:47:14.118Z,5.82
2022-10-18T13:49:59.576Z,3.80
2022-10-18T13:52:32.635Z,4.28
2022-10-18T13:55:16.275Z,5.55
2022-10-18T13:57:47.489Z,4.68
2022-10-18T14:00:28.637Z,3.35
2022-10-18T14:03:22.124Z,5.63
2022-10-18T14:06:03.868Z,3.90
2022-10-18T14:08:36.818Z,7.72
2022-10-18T14:11:06.593Z,5.85
2022-10-18T14:13:38.278Z,5.30
2022-10-18T14:16:12.517Z,5.20
2022-10-18T14:18:42.660Z,4.78
2022-10-18T14:21:21.457Z,7.18
2022-10-18T14:23:50.493Z,6.00
2022-10-18T14:26:19.559Z,7.32
2022-10-18T14:28:59.519Z,6.28
2022-10-18T14:31:29.922Z,11.32
2022-10-18T14:33:59.377Z,4.55
2022-10-18T14:36:28.702Z,4.93
2022-10-18T14:38:58.342Z,6.60
2022-10-18T14:41:27.301Z,8.60
2022-10-18T14:44:11.166Z,5.60
2022-10-18T14:46:45.003Z,5.15
2022-10-18T14:49:13.825Z,3.47
2022-10-18T14:51:43.472Z,3.70
2022-10-18T14:56:48.663Z,2.50
2022-10-18T14:59:19.327Z,3.33
2022-10-18T15:01:56.520Z,3.63
2022-10-18T15:04:30.948Z,4.28
2022-10-18T15:06:59.575Z,4.25
2022-10-18T15:12:01.743Z,4.28
2022-10-18T15:14:30.527Z,3.65
2022-10-18T15:17:03.384Z,5.30
2022-10-18T15:19:33.314Z,8.52
2022-10-18T15:22:27.206Z,3.92
2022-10-18T15:25:05.445Z,4.63
2022-10-18T15:27:36.909Z,4.30
2022-10-18T15:30:08.516Z,4.63
2022-10-18T15:32:38.173Z,3.58
2022-10-18T15:35:12.107Z,4.15
2022-10-18T15:37:42.254Z,4.07
2022-10-18T15:40:34.564Z,6.00
2022-10-18T15:43:03.898Z,3.63
2022-10-18T15:45:33.651Z,5.07
2022-10-18T15:48:18.760Z,4.63
2022-10-18T15:50:48.514Z,4.80
2022-10-18T15:53:34.592Z,6.10
2022-10-18T15:56:03.978Z,5.30
2022-10-18T15:58:39.026Z,4.25
2022-10-18T16:01:08.463Z,5.78
2022-10-18T16:03:39.448Z,4.13
2022-10-18T16:06:08.772Z,4.47
2022-10-18T16:08:40.625Z,6.95
2022-10-18T16:11:08.876Z,3.67
2022-10-18T16:13:37.060Z,4.78
2022-10-18T16:16:05.366Z,8.45
2022-10-18T16:18:33.563Z,4.63
2022-10-18T16:21:03.244Z,6.32
2022-10-18T16:23:31.433Z,4.07
2022-10-18T16:25:59.688Z,5.78
2022-10-18T16:28:31.705Z,5.93
2022-10-18T16:31:01.127Z,6.82
2022-10-18T16:33:29.338Z,7.28
2022-10-18T16:35:57.568Z,5.13
2022-10-18T16:38:34.175Z,8.60
2022-10-18T16:41:03.443Z,4.00
2022-10-18T16:43:31.620Z,7.75
2022-10-18T16:45:59.881Z,5.07
2022-10-18T16:48:28.518Z,4.63
2022-10-18T16:50:57.911Z,6.53
2022-10-18T16:53:28.794Z,7.15
2022-10-18T16:55:59.464Z,4.43
2022-10-18T16:58:28.708Z,5.53
2022-10-18T17:00:57.107Z,7.57
2022-10-18T17:03:25.880Z,5.25
2022-10-18T17:05:54.180Z,7.47
2022-10-18T17:08:23.319Z,10.43
2022-10-18T17:10:54.889Z,6.13
2022-10-18T17:13:24.918Z,10.97
2022-10-18T17:15:53.551Z,7.50
2022-10-18T17:18:22.706Z,7.57
2022-10-18T17:20:53.206Z,7.87
2022-10-18T17:23:21.710Z,9.77
2022-10-18T17:26:04.998Z,12.70
2022-10-18T17:28:39.089Z,8.40
2022-10-18T17:31:08.099Z,9.90
2022-10-18T17:33:36.417Z,5.43
2022-10-18T17:36:04.863Z,13.87
2022-10-18T17:38:33.079Z,8.90
2022-10-18T17:41:01.307Z,10.57
2022-10-18T17:43:29.606Z,7.53
2022-10-18T17:45:59.166Z,7.80
2022-10-18T17:48:29.068Z,12.63
2022-10-18T17:50:57.465Z,13.87
2022-10-18T17:53:29.006Z,13.20
2022-10-18T17:56:02.561Z,10.77
2022-10-18T17:58:31.729Z,8.05
2022-10-18T18:01:09.436Z,8.13
2022-10-18T18:03:37.743Z,13.33
2022-10-18T18:06:13.432Z,13.70
2022-10-18T18:08:41.634Z,10.03
2022-10-18T18:11:09.830Z,12.67
2022-10-18T18:13:38.027Z,12.03
2022-10-18T18:16:14.595Z,9.13
2022-10-18T18:18:42.883Z,7.87
2022-10-18T18:21:11.223Z,14.80
2022-10-18T18:23:39.441Z,10.50
2022-10-18T18:26:07.815Z,9.03
2022-10-18T18:28:36.749Z,7.53
2022-10-18T18:31:06.967Z,13.40
2022-10-18T18:33:36.552Z,10.67
2022-10-18T18:36:06.623Z,11.53
2022-10-18T18:38:35.500Z,8.80
2022-10-18T18:41:04.283Z,11.83
2022-10-18T18:43:32.473Z,11.20
2022-10-18T18:46:00.671Z,9.87
2022-10-18T18:48:29.342Z,12.20
2022-10-18T18:50:58.925Z,11.27
2022-10-18T18:53:29.405Z,9.30
2022-10-18T18:56:02.397Z,8.63
2022-10-18T18:58:30.556Z,10.37
2022-10-18T19:00:58.834Z,8.97
2022-10-18T19:03:27.107Z,13.40
2022-10-18T19:06:05.438Z,9.50
2022-10-18T19:08:33.751Z,11.23
2022-10-18T19:11:02.021Z,9.63
2022-10-18T19:13:30.239Z,12.67
2022-10-18T19:16:11.718Z,10.67
2022-10-18T19:18:39.941Z,16.20
2022-10-18T19:21:09.492Z,19.80
2022-10-18T19:23:37.742Z,11.47
2022-10-18T19:26:12.183Z,13.40
2022-10-18T19:28:40.618Z,13.60
2022-10-18T19:31:08.916Z,12.57
2022-10-18T19:33:48.606Z,16.40
2022-10-18T19:36:26.709Z,11.20
2022-10-18T19:38:54.945Z,9.27
2022-10-18T19:43:51.942Z,8.70
2022-10-18T19:46:20.144Z,9.23
2022-10-18T19:48:48.417Z,10.60
2022-10-18T19:51:20.255Z,13.57
2022-10-18T19:53:53.570Z,10.10
2022-10-18T19:56:23.276Z,7.07
2022-10-18T19:58:51.712Z,12.17
2022-10-18T20:01:20.548Z,8.90
2022-10-18T20:03:49.278Z,12.07
2022-10-18T20:06:17.525Z,10.77
2022-10-18T20:08:45.889Z,8.20
2022-10-18T20:11:16.964Z,6.33
2022-10-18T20:13:45.435Z,6.83
2022-10-18T20:16:14.845Z,9.63
2022-10-18T20:18:44.055Z,14.47
2022-10-18T20:21:12.815Z,12.27
2022-10-18T20:23:42.397Z,9.73
2022-10-18T20:26:14.499Z,9.97
2022-10-18T20:28:47.702Z,9.43
2022-10-18T20:31:17.694Z,11.80
2022-10-18T20:33:45.976Z,11.77
2022-10-18T20:36:15.018Z,11.03
2022-10-18T20:38:43.977Z,13.37
2022-10-18T20:41:13.280Z,10.90
2022-10-18T20:43:41.965Z,10.50
2022-10-18T20:46:11.743Z,11.53
2022-10-18T20:48:40.015Z,11.90
2022-10-18T20:51:08.961Z,10.83
2022-10-18T20:56:09.904Z,9.57
2022-10-18T20:58:38.882Z,11.33
2022-10-18T21:01:08.208Z,9.27
2022-10-18T21:03:41.605Z,15.37
2022-10-18T21:06:10.696Z,11.97
2022-10-18T21:08:39.363Z,9.87
2022-10-18T21:11:08.935Z,8.83
2022-10-18T21:13:38.312Z,11.03
2022-10-18T21:16:07.311Z,10.37
2022-10-18T21:18:36.597Z,9.80
2022-10-18T21:21:14.195Z,8.33
2022-10-18T21:23:42.735Z,14.37
2022-10-18T21:26:15.813Z,85.43
2022-10-18T21:28:44.354Z,13.20
2022-10-18T21:31:14.428Z,10.50
2022-10-18T21:33:43.097Z,12.00
2022-10-18T21:36:13.635Z,13.23
2022-10-18T21:38:42.232Z,12.77
2022-10-18T21:41:11.272Z,7.27
2022-10-18T21:43:41.793Z,15.30
2022-10-18T21:46:11.024Z,8.33
2022-10-18T21:48:39.924Z,12.23
2022-10-18T21:51:09.798Z,7.90
2022-10-18T21:53:39.580Z,10.47
2022-10-18T21:56:09.246Z,10.07
2022-10-18T21:58:37.616Z,7.23
2022-10-18T22:01:08.441Z,6.67
2022-10-18T22:03:38.015Z,5.90
2022-10-18T22:06:09.017Z,8.67
2022-10-18T22:08:38.902Z,9.80
2022-10-18T22:11:09.054Z,12.23
2022-10-18T22:13:39.067Z,11.67
2022-10-18T22:16:08.626Z,6.13
2022-10-18T22:18:37.040Z,10.10
2022-10-18T22:21:06.684Z,10.10
2022-10-18T22:23:35.685Z,9.37
2022-10-18T22:26:05.763Z,7.00
2022-10-18T22:28:34.341Z,7.60
2022-10-18T22:31:02.689Z,6.67
2022-10-18T22:33:31.581Z,7.87
2022-10-18T22:36:00.485Z,5.77
2022-10-18T22:38:29.303Z,7.33
2022-10-18T22:40:57.553Z,9.37
2022-10-18T22:43:27.278Z,7.97
2022-10-18T22:45:55.557Z,6.00
2022-10-18T22:48:23.871Z,6.73
2022-10-18T22:50:52.311Z,6.03
2022-10-18T22:53:20.583Z,9.63
2022-10-18T22:55:48.972Z,11.33
2022-10-18T22:58:18.104Z,9.33
2022-10-18T23:00:48.021Z,6.33
2022-10-18T23:03:16.882Z,6.57
2022-10-18T23:05:46.222Z,7.30
2022-10-18T23:08:16.233Z,6.80
2022-10-18T23:10:44.592Z,5.13
2022-10-18T23:13:14.290Z,7.73
2022-10-18T23:15:42.580Z,5.30
2022-10-18T23:18:12.539Z,6.23
2022-10-18T23:20:41.508Z,7.47
2022-10-18T23:23:10.020Z,4.90
2022-10-18T23:25:39.137Z,5.50
2022-10-18T23:28:08.185Z,6.43
2022-10-18T23:30:39.181Z,8.20
2022-10-18T23:33:07.499Z,8.47
2022-10-18T23:35:38.365Z,7.13
2022-10-18T23:38:06.729Z,5.40
2022-10-18T23:40:35.105Z,6.20
2022-10-18T23:43:03.411Z,7.80
2022-10-18T23:45:31.689Z,8.57
2022-10-18T23:47:59.889Z,5.17
2022-10-18T23:50:28.155Z,6.83
2022-10-18T23:52:57.918Z,4.03
2022-10-18T23:55:26.146Z,6.47
2022-10-18T23:57:54.401Z,4.43
